sensor_id;sensor_type;location;lat;lon;timestamp;P1;durP1;ratioP1;P2;durP2;ratioP2
10450;SDS011;5273;51.290;6.918;2023-07-30T00:01:59;3.97;;;2.53;;
10450;SDS011;5273;51.290;6.918;2023-07-30T00:04:25;4.85;;;2.55;;
10450;SDS011;5273;51.290;6.918;2023-07-30T00:06:52;3.95;;;2.80;;
10450;SDS011;5273;51.290;6.918;2023-07-30T00:09:19;4.47;;;2.90;;
10450;SDS011;5273;51.290;6.918;2023-07-30T00:11:46;4.78;;;2.88;;
10450;SDS011;5273;51.290;6.918;2023-07-30T00:14:14;6.13;;;3.03;;
10450;SDS011;5273;51.290;6.918;2023-07-30T00:16:41;4.05;;;2.60;;
10450;SDS011;5273;51.290;6.918;2023-07-30T00:19:07;6.10;;;3.10;;
10450;SDS011;5273;51.290;6.918;2023-07-30T00:21:35;4.97;;;2.90;;
10450;SDS011;5273;51.290;6.918;2023-07-30T00:24:02;4.85;;;3.10;;
10450;SDS011;5273;51.290;6.918;2023-07-30T00:26:29;4.05;;;2.92;;
10450;SDS011;5273;51.290;6.918;2023-07-30T00:28:56;6.18;;;3.10;;
10450;SDS011;5273;51.290;6.918;2023-07-30T00:31:24;4.93;;;2.75;;
10450;SDS011;5273;51.290;6.918;2023-07-30T00:33:51;4.85;;;2.85;;
10450;SDS011;5273;51.290;6.918;2023-07-30T00:36:18;4.97;;;2.60;;
10450;SDS011;5273;51.290;6.918;2023-07-30T00:38:44;9.43;;;3.08;;
10450;SDS011;5273;51.290;6.918;2023-07-30T00:41:11;5.20;;;2.78;;
10450;SDS011;5273;51.290;6.918;2023-07-30T00:43:38;3.08;;;2.75;;
10450;SDS011;5273;51.290;6.918;2023-07-30T00:46:05;7.05;;;3.00;;
10450;SDS011;5273;51.290;6.918;2023-07-30T00:48:33;4.72;;;2.95;;
10450;SDS011;5273;51.290;6.918;2023-07-30T00:51:00;3.00;;;2.65;;
10450;SDS011;5273;51.290;6.918;2023-07-30T00:53:27;6.45;;;2.80;;
10450;SDS011;5273;51.290;6.918;2023-07-30T00:55:54;7.50;;;2.80;;
10450;SDS011;5273;51.290;6.918;2023-07-30T00:58:21;5.70;;;3.10;;
10450;SDS011;5273;51.290;6.918;2023-07-30T01:00:49;4.22;;;2.90;;
10450;SDS011;5273;51.290;6.918;2023-07-30T01:03:17;8.77;;;3.00;;
10450;SDS011;5273;51.290;6.918;2023-07-30T01:05:46;5.82;;;2.78;;
10450;SDS011;5273;51.290;6.918;2023-07-30T01:08:13;6.07;;;2.70;;
10450;SDS011;5273;51.290;6.918;2023-07-30T01:10:40;3.80;;;2.67;;
10450;SDS011;5273;51.290;6.918;2023-07-30T01:13:07;4.53;;;2.85;;
10450;SDS011;5273;51.290;6.918;2023-07-30T01:15:35;4.05;;;2.70;;
10450;SDS011;5273;51.290;6.918;2023-07-30T01:18:03;4.53;;;2.88;;
10450;SDS011;5273;51.290;6.918;2023-07-30T01:20:30;6.28;;;3.00;;
10450;SDS011;5273;51.290;6.918;2023-07-30T01:22:58;5.15;;;2.63;;
10450;SDS011;5273;51.290;6.918;2023-07-30T01:25:26;7.97;;;3.05;;
10450;SDS011;5273;51.290;6.918;2023-07-30T01:27:56;5.55;;;2.75;;
10450;SDS011;5273;51.290;6.918;2023-07-30T01:30:27;5.40;;;2.47;;
10450;SDS011;5273;51.290;6.918;2023-07-30T01:32:56;9.25;;;3.13;;
10450;SDS011;5273;51.290;6.918;2023-07-30T01:35:25;8.32;;;2.97;;
10450;SDS011;5273;51.290;6.918;2023-07-30T01:37:53;4.65;;;2.92;;
10450;SDS011;5273;51.290;6.918;2023-07-30T01:40:22;6.55;;;3.28;;
10450;SDS011;5273;51.290;6.918;2023-07-30T01:42:49;7.13;;;2.63;;
10450;SDS011;5273;51.290;6.918;2023-07-30T01:45:16;7.43;;;2.85;;
10450;SDS011;5273;51.290;6.918;2023-07-30T01:47:43;4.60;;;2.80;;
10450;SDS011;5273;51.290;6.918;2023-07-30T01:50:10;6.28;;;2.50;;
10450;SDS011;5273;51.290;6.918;2023-07-30T01:52:37;8.32;;;3.05;;
10450;SDS011;5273;51.290;6.918;2023-07-30T01:55:04;3.10;;;2.47;;
10450;SDS011;5273;51.290;6.918;2023-07-30T01:57:33;6.68;;;2.45;;
10450;SDS011;5273;51.290;6.918;2023-07-30T02:00:00;6.63;;;3.00;;
10450;SDS011;5273;51.290;6.918;2023-07-30T02:02:28;4.18;;;3.00;;
10450;SDS011;5273;51.290;6.918;2023-07-30T02:04:55;5.97;;;2.50;;
10450;SDS011;5273;51.290;6.918;2023-07-30T02:07:21;7.53;;;3.13;;
10450;SDS011;5273;51.290;6.918;2023-07-30T02:09:48;8.88;;;2.83;;
10450;SDS011;5273;51.290;6.918;2023-07-30T02:12:15;7.15;;;3.17;;
10450;SDS011;5273;51.290;6.918;2023-07-30T02:14:43;5.93;;;3.20;;
10450;SDS011;5273;51.290;6.918;2023-07-30T02:17:10;8.77;;;3.53;;
10450;SDS011;5273;51.290;6.918;2023-07-30T02:19:37;6.40;;;3.55;;
10450;SDS011;5273;51.290;6.918;2023-07-30T02:22:04;6.95;;;3.00;;
10450;SDS011;5273;51.290;6.918;2023-07-30T02:24:31;6.13;;;2.80;;
10450;SDS011;5273;51.290;6.918;2023-07-30T02:26:58;4.95;;;2.78;;
10450;SDS011;5273;51.290;6.918;2023-07-30T02:29:24;8.00;;;2.90;;
10450;SDS011;5273;51.290;6.918;2023-07-30T02:31:52;6.88;;;3.20;;
10450;SDS011;5273;51.290;6.918;2023-07-30T02:34:19;7.57;;;2.80;;
10450;SDS011;5273;51.290;6.918;2023-07-30T02:36:46;8.98;;;3.33;;
10450;SDS011;5273;51.290;6.918;2023-07-30T02:39:14;7.20;;;2.92;;
10450;SDS011;5273;51.290;6.918;2023-07-30T02:41:41;7.60;;;3.08;;
10450;SDS011;5273;51.290;6.918;2023-07-30T02:44:08;6.65;;;3.22;;
10450;SDS011;5273;51.290;6.918;2023-07-30T02:46:34;6.07;;;3.00;;
10450;SDS011;5273;51.290;6.918;2023-07-30T02:49:03;4.88;;;2.50;;
10450;SDS011;5273;51.290;6.918;2023-07-30T02:51:29;6.07;;;2.90;;
10450;SDS011;5273;51.290;6.918;2023-07-30T02:53:57;6.88;;;3.88;;
10450;SDS011;5273;51.290;6.918;2023-07-30T02:56:24;8.93;;;3.40;;
10450;SDS011;5273;51.290;6.918;2023-07-30T02:58:51;8.60;;;3.45;;
10450;SDS011;5273;51.290;6.918;2023-07-30T03:01:18;6.90;;;3.00;;
10450;SDS011;5273;51.290;6.918;2023-07-30T03:03:45;5.35;;;3.10;;
10450;SDS011;5273;51.290;6.918;2023-07-30T03:06:13;8.90;;;3.38;;
10450;SDS011;5273;51.290;6.918;2023-07-30T03:08:41;6.00;;;2.92;;
10450;SDS011;5273;51.290;6.918;2023-07-30T03:11:08;9.00;;;2.97;;
10450;SDS011;5273;51.290;6.918;2023-07-30T03:13:35;8.27;;;3.35;;
10450;SDS011;5273;51.290;6.918;2023-07-30T03:16:02;4.13;;;3.00;;
10450;SDS011;5273;51.290;6.918;2023-07-30T03:18:29;10.30;;;3.25;;
10450;SDS011;5273;51.290;6.918;2023-07-30T03:20:57;5.35;;;3.22;;
10450;SDS011;5273;51.290;6.918;2023-07-30T03:23:26;5.88;;;3.20;;
10450;SDS011;5273;51.290;6.918;2023-07-30T03:25:53;4.22;;;2.83;;
10450;SDS011;5273;51.290;6.918;2023-07-30T03:28:20;10.55;;;3.80;;
10450;SDS011;5273;51.290;6.918;2023-07-30T03:30:47;7.40;;;3.28;;
10450;SDS011;5273;51.290;6.918;2023-07-30T03:33:14;6.53;;;3.28;;
10450;SDS011;5273;51.290;6.918;2023-07-30T03:35:40;7.28;;;3.17;;
10450;SDS011;5273;51.290;6.918;2023-07-30T03:38:07;8.38;;;3.25;;
10450;SDS011;5273;51.290;6.918;2023-07-30T03:40:35;5.05;;;3.17;;
10450;SDS011;5273;51.290;6.918;2023-07-30T03:43:02;7.97;;;3.47;;
10450;SDS011;5273;51.290;6.918;2023-07-30T03:45:29;7.38;;;3.45;;
10450;SDS011;5273;51.290;6.918;2023-07-30T03:47:56;6.80;;;3.10;;
10450;SDS011;5273;51.290;6.918;2023-07-30T03:50:23;6.65;;;3.25;;
10450;SDS011;5273;51.290;6.918;2023-07-30T03:52:49;10.85;;;3.40;;
10450;SDS011;5273;51.290;6.918;2023-07-30T03:55:16;11.60;;;3.28;;
10450;SDS011;5273;51.290;6.918;2023-07-30T03:57:44;4.40;;;2.78;;
10450;SDS011;5273;51.290;6.918;2023-07-30T04:00:11;8.63;;;3.00;;
10450;SDS011;5273;51.290;6.918;2023-07-30T04:02:38;11.40;;;3.13;;
10450;SDS011;5273;51.290;6.918;2023-07-30T04:05:05;7.53;;;2.97;;
10450;SDS011;5273;51.290;6.918;2023-07-30T04:07:32;8.25;;;3.10;;
10450;SDS011;5273;51.290;6.918;2023-07-30T04:09:58;12.02;;;3.58;;
10450;SDS011;5273;51.290;6.918;2023-07-30T04:12:25;8.75;;;2.92;;
10450;SDS011;5273;51.290;6.918;2023-07-30T04:14:53;8.82;;;2.90;;
10450;SDS011;5273;51.290;6.918;2023-07-30T04:17:20;6.88;;;2.90;;
10450;SDS011;5273;51.290;6.918;2023-07-30T04:19:47;6.05;;;2.60;;
10450;SDS011;5273;51.290;6.918;2023-07-30T04:22:14;8.10;;;2.70;;
10450;SDS011;5273;51.290;6.918;2023-07-30T04:24:41;10.05;;;3.17;;
10450;SDS011;5273;51.290;6.918;2023-07-30T04:27:07;6.50;;;3.05;;
10450;SDS011;5273;51.290;6.918;2023-07-30T04:29:34;7.28;;;2.90;;
10450;SDS011;5273;51.290;6.918;2023-07-30T04:32:03;11.02;;;3.08;;
10450;SDS011;5273;51.290;6.918;2023-07-30T04:34:30;10.40;;;2.70;;
10450;SDS011;5273;51.290;6.918;2023-07-30T04:36:57;8.50;;;3.22;;
10450;SDS011;5273;51.290;6.918;2023-07-30T04:39:23;7.25;;;3.10;;
10450;SDS011;5273;51.290;6.918;2023-07-30T04:41:50;8.10;;;3.28;;
10450;SDS011;5273;51.290;6.918;2023-07-30T04:44:17;7.30;;;2.72;;
10450;SDS011;5273;51.290;6.918;2023-07-30T04:46:44;7.68;;;3.22;;
10450;SDS011;5273;51.290;6.918;2023-07-30T04:49:12;8.65;;;2.95;;
10450;SDS011;5273;51.290;6.918;2023-07-30T04:51:39;4.43;;;2.65;;
10450;SDS011;5273;51.290;6.918;2023-07-30T04:54:05;7.70;;;2.95;;
10450;SDS011;5273;51.290;6.918;2023-07-30T04:56:32;11.65;;;3.08;;
10450;SDS011;5273;51.290;6.918;2023-07-30T04:58:59;6.72;;;2.75;;
10450;SDS011;5273;51.290;6.918;2023-07-30T05:01:26;6.90;;;2.38;;
10450;SDS011;5273;51.290;6.918;2023-07-30T05:03:53;6.80;;;2.65;;
10450;SDS011;5273;51.290;6.918;2023-07-30T05:06:21;6.18;;;2.40;;
10450;SDS011;5273;51.290;6.918;2023-07-30T05:08:48;11.00;;;3.03;;
10450;SDS011;5273;51.290;6.918;2023-07-30T05:11:15;7.05;;;2.60;;
10450;SDS011;5273;51.290;6.918;2023-07-30T05:13:42;11.48;;;2.80;;
10450;SDS011;5273;51.290;6.918;2023-07-30T05:16:09;12.20;;;3.30;;
10450;SDS011;5273;51.290;6.918;2023-07-30T05:18:35;6.60;;;2.40;;
10450;SDS011;5273;51.290;6.918;2023-07-30T05:21:02;7.40;;;2.85;;
10450;SDS011;5273;51.290;6.918;2023-07-30T05:23:30;8.07;;;3.00;;
10450;SDS011;5273;51.290;6.918;2023-07-30T05:25:57;5.50;;;2.45;;
10450;SDS011;5273;51.290;6.918;2023-07-30T05:28:24;5.70;;;2.28;;
10450;SDS011;5273;51.290;6.918;2023-07-30T05:30:52;5.93;;;2.40;;
10450;SDS011;5273;51.290;6.918;2023-07-30T05:33:18;8.02;;;2.03;;
10450;SDS011;5273;51.290;6.918;2023-07-30T05:35:45;6.50;;;2.60;;
10450;SDS011;5273;51.290;6.918;2023-07-30T05:38:13;9.93;;;2.55;;
10450;SDS011;5273;51.290;6.918;2023-07-30T05:40:41;6.22;;;1.95;;
10450;SDS011;5273;51.290;6.918;2023-07-30T05:43:08;6.50;;;2.25;;
10450;SDS011;5273;51.290;6.918;2023-07-30T05:45:35;4.95;;;2.15;;
10450;SDS011;5273;51.290;6.918;2023-07-30T05:48:01;6.38;;;2.30;;
10450;SDS011;5273;51.290;6.918;2023-07-30T05:50:28;4.18;;;1.90;;
10450;SDS011;5273;51.290;6.918;2023-07-30T05:52:55;5.28;;;2.10;;
10450;SDS011;5273;51.290;6.918;2023-07-30T05:55:22;5.07;;;2.05;;
10450;SDS011;5273;51.290;6.918;2023-07-30T05:57:50;6.60;;;1.90;;
10450;SDS011;5273;51.290;6.918;2023-07-30T06:00:18;6.82;;;2.30;;
10450;SDS011;5273;51.290;6.918;2023-07-30T06:02:45;5.80;;;1.98;;
10450;SDS011;5273;51.290;6.918;2023-07-30T06:05:12;4.22;;;2.00;;
10450;SDS011;5273;51.290;6.918;2023-07-30T06:07:39;5.25;;;2.05;;
10450;SDS011;5273;51.290;6.918;2023-07-30T06:10:06;4.47;;;1.80;;
10450;SDS011;5273;51.290;6.918;2023-07-30T06:12:33;4.93;;;1.75;;
10450;SDS011;5273;51.290;6.918;2023-07-30T06:15:01;6.18;;;2.20;;
10450;SDS011;5273;51.290;6.918;2023-07-30T06:17:28;7.00;;;2.35;;
10450;SDS011;5273;51.290;6.918;2023-07-30T06:19:55;7.43;;;2.00;;
10450;SDS011;5273;51.290;6.918;2023-07-30T06:22:22;6.40;;;1.83;;
10450;SDS011;5273;51.290;6.918;2023-07-30T06:24:49;2.63;;;1.42;;
10450;SDS011;5273;51.290;6.918;2023-07-30T06:27:15;5.68;;;1.88;;
10450;SDS011;5273;51.290;6.918;2023-07-30T06:29:42;5.85;;;2.08;;
10450;SDS011;5273;51.290;6.918;2023-07-30T06:32:10;5.47;;;2.05;;
10450;SDS011;5273;51.290;6.918;2023-07-30T06:34:37;6.47;;;2.00;;
10450;SDS011;5273;51.290;6.918;2023-07-30T06:37:04;5.40;;;2.00;;
10450;SDS011;5273;51.290;6.918;2023-07-30T06:39:31;7.50;;;2.03;;
10450;SDS011;5273;51.290;6.918;2023-07-30T06:41:58;9.35;;;1.98;;
10450;SDS011;5273;51.290;6.918;2023-07-30T06:44:25;5.00;;;1.85;;
10450;SDS011;5273;51.290;6.918;2023-07-30T06:46:51;5.70;;;2.13;;
10450;SDS011;5273;51.290;6.918;2023-07-30T06:49:20;9.23;;;2.30;;
10450;SDS011;5273;51.290;6.918;2023-07-30T06:51:46;7.00;;;1.88;;
10450;SDS011;5273;51.290;6.918;2023-07-30T06:54:13;4.28;;;2.05;;
10450;SDS011;5273;51.290;6.918;2023-07-30T06:56:40;7.03;;;2.15;;
10450;SDS011;5273;51.290;6.918;2023-07-30T06:59:07;6.03;;;2.03;;
10450;SDS011;5273;51.290;6.918;2023-07-30T07:01:33;10.40;;;2.50;;
10450;SDS011;5273;51.290;6.918;2023-07-30T07:04:00;6.38;;;2.00;;
10450;SDS011;5273;51.290;6.918;2023-07-30T07:06:28;6.93;;;2.33;;
10450;SDS011;5273;51.290;6.918;2023-07-30T07:08:55;6.65;;;2.00;;
10450;SDS011;5273;51.290;6.918;2023-07-30T07:11:23;7.68;;;2.40;;
10450;SDS011;5273;51.290;6.918;2023-07-30T07:13:49;7.85;;;2.00;;
10450;SDS011;5273;51.290;6.918;2023-07-30T07:16:16;9.95;;;2.58;;
10450;SDS011;5273;51.290;6.918;2023-07-30T07:18:43;8.32;;;2.60;;
10450;SDS011;5273;51.290;6.918;2023-07-30T07:21:10;9.63;;;2.28;;
10450;SDS011;5273;51.290;6.918;2023-07-30T07:23:38;5.25;;;2.20;;
10450;SDS011;5273;51.290;6.918;2023-07-30T07:26:05;6.63;;;2.65;;
10450;SDS011;5273;51.290;6.918;2023-07-30T07:28:32;6.53;;;2.33;;
10450;SDS011;5273;51.290;6.918;2023-07-30T07:30:59;7.18;;;2.58;;
10450;SDS011;5273;51.290;6.918;2023-07-30T07:33:26;7.05;;;1.92;;
10450;SDS011;5273;51.290;6.918;2023-07-30T07:36:02;9.32;;;2.42;;
10450;SDS011;5273;51.290;6.918;2023-07-30T07:38:29;7.38;;;2.40;;
10450;SDS011;5273;51.290;6.918;2023-07-30T07:40:58;10.13;;;2.60;;
10450;SDS011;5273;51.290;6.918;2023-07-30T07:43:25;7.43;;;2.63;;
10450;SDS011;5273;51.290;6.918;2023-07-30T07:45:52;8.48;;;2.17;;
10450;SDS011;5273;51.290;6.918;2023-07-30T07:48:19;8.70;;;2.35;;
10450;SDS011;5273;51.290;6.918;2023-07-30T07:50:46;7.65;;;2.55;;
10450;SDS011;5273;51.290;6.918;2023-07-30T07:53:13;5.60;;;2.35;;
10450;SDS011;5273;51.290;6.918;2023-07-30T07:55:39;7.97;;;2.13;;
10450;SDS011;5273;51.290;6.918;2023-07-30T07:58:08;5.43;;;2.58;;
10450;SDS011;5273;51.290;6.918;2023-07-30T08:00:34;12.25;;;2.53;;
10450;SDS011;5273;51.290;6.918;2023-07-30T08:03:01;7.78;;;2.70;;
10450;SDS011;5273;51.290;6.918;2023-07-30T08:05:28;8.73;;;2.65;;
10450;SDS011;5273;51.290;6.918;2023-07-30T08:07:55;6.72;;;2.33;;
10450;SDS011;5273;51.290;6.918;2023-07-30T08:10:21;8.90;;;3.10;;
10450;SDS011;5273;51.290;6.918;2023-07-30T08:12:48;6.13;;;2.30;;
10450;SDS011;5273;51.290;6.918;2023-07-30T08:15:16;8.38;;;2.65;;
10450;SDS011;5273;51.290;6.918;2023-07-30T08:17:43;7.55;;;2.70;;
10450;SDS011;5273;51.290;6.918;2023-07-30T08:20:11;7.75;;;2.60;;
10450;SDS011;5273;51.290;6.918;2023-07-30T08:22:37;9.40;;;2.50;;
10450;SDS011;5273;51.290;6.918;2023-07-30T08:25:04;8.75;;;3.03;;
10450;SDS011;5273;51.290;6.918;2023-07-30T08:27:32;9.43;;;2.60;;
10450;SDS011;5273;51.290;6.918;2023-07-30T08:29:59;8.63;;;2.72;;
10450;SDS011;5273;51.290;6.918;2023-07-30T08:32:27;7.00;;;2.92;;
10450;SDS011;5273;51.290;6.918;2023-07-30T08:34:54;10.45;;;2.95;;
10450;SDS011;5273;51.290;6.918;2023-07-30T08:37:20;9.55;;;3.10;;
10450;SDS011;5273;51.290;6.918;2023-07-30T08:39:48;7.97;;;2.33;;
10450;SDS011;5273;51.290;6.918;2023-07-30T08:42:15;4.95;;;2.25;;
10450;SDS011;5273;51.290;6.918;2023-07-30T08:44:42;5.93;;;2.40;;
10450;SDS011;5273;51.290;6.918;2023-07-30T08:47:09;11.18;;;2.80;;
10450;SDS011;5273;51.290;6.918;2023-07-30T08:49:37;10.05;;;2.55;;
10450;SDS011;5273;51.290;6.918;2023-07-30T08:52:06;11.27;;;2.08;;
10450;SDS011;5273;51.290;6.918;2023-07-30T08:54:34;9.27;;;2.30;;
10450;SDS011;5273;51.290;6.918;2023-07-30T08:57:03;7.47;;;2.42;;
10450;SDS011;5273;51.290;6.918;2023-07-30T08:59:31;6.88;;;2.58;;
10450;SDS011;5273;51.290;6.918;2023-07-30T09:02:03;7.07;;;2.50;;
10450;SDS011;5273;51.290;6.918;2023-07-30T09:04:33;10.90;;;2.88;;
10450;SDS011;5273;51.290;6.918;2023-07-30T09:07:05;10.30;;;2.90;;
10450;SDS011;5273;51.290;6.918;2023-07-30T09:09:35;7.65;;;2.70;;
10450;SDS011;5273;51.290;6.918;2023-07-30T09:12:03;10.20;;;2.88;;
10450;SDS011;5273;51.290;6.918;2023-07-30T09:14:31;9.25;;;2.63;;
10450;SDS011;5273;51.290;6.918;2023-07-30T09:16:57;12.77;;;2.72;;
10450;SDS011;5273;51.290;6.918;2023-07-30T09:19:24;9.40;;;2.35;;
10450;SDS011;5273;51.290;6.918;2023-07-30T09:21:52;4.53;;;2.00;;
10450;SDS011;5273;51.290;6.918;2023-07-30T09:24:22;5.35;;;2.20;;
10450;SDS011;5273;51.290;6.918;2023-07-30T09:26:48;7.22;;;2.22;;
10450;SDS011;5273;51.290;6.918;2023-07-30T09:29:15;8.43;;;2.20;;
10450;SDS011;5273;51.290;6.918;2023-07-30T09:31:43;8.20;;;2.55;;
10450;SDS011;5273;51.290;6.918;2023-07-30T09:34:14;6.88;;;2.22;;
10450;SDS011;5273;51.290;6.918;2023-07-30T09:36:43;5.88;;;2.22;;
10450;SDS011;5273;51.290;6.918;2023-07-30T09:39:14;7.75;;;2.33;;
10450;SDS011;5273;51.290;6.918;2023-07-30T09:41:43;5.88;;;2.05;;
10450;SDS011;5273;51.290;6.918;2023-07-30T09:44:10;6.13;;;2.10;;
10450;SDS011;5273;51.290;6.918;2023-07-30T09:46:41;5.45;;;2.13;;
10450;SDS011;5273;51.290;6.918;2023-07-30T09:49:09;5.15;;;1.95;;
10450;SDS011;5273;51.290;6.918;2023-07-30T09:51:36;6.72;;;2.20;;
10450;SDS011;5273;51.290;6.918;2023-07-30T09:54:04;5.35;;;2.08;;
10450;SDS011;5273;51.290;6.918;2023-07-30T09:56:32;6.07;;;2.30;;
10450;SDS011;5273;51.290;6.918;2023-07-30T09:59:00;5.70;;;1.88;;
10450;SDS011;5273;51.290;6.918;2023-07-30T10:01:27;7.43;;;2.63;;
10450;SDS011;5273;51.290;6.918;2023-07-30T10:03:56;6.50;;;2.22;;
10450;SDS011;5273;51.290;6.918;2023-07-30T10:06:23;5.95;;;2.03;;
10450;SDS011;5273;51.290;6.918;2023-07-30T10:08:53;4.82;;;2.35;;
10450;SDS011;5273;51.290;6.918;2023-07-30T10:11:22;8.23;;;2.20;;
10450;SDS011;5273;51.290;6.918;2023-07-30T10:13:49;4.53;;;1.67;;
10450;SDS011;5273;51.290;6.918;2023-07-30T10:16:18;8.23;;;2.10;;
10450;SDS011;5273;51.290;6.918;2023-07-30T10:18:53;7.32;;;2.20;;
10450;SDS011;5273;51.290;6.918;2023-07-30T10:21:23;5.13;;;1.90;;
10450;SDS011;5273;51.290;6.918;2023-07-30T10:23:57;3.70;;;1.80;;
10450;SDS011;5273;51.290;6.918;2023-07-30T10:26:29;4.63;;;2.00;;
10450;SDS011;5273;51.290;6.918;2023-07-30T10:29:09;4.38;;;2.33;;
10450;SDS011;5273;51.290;6.918;2023-07-30T10:31:41;5.70;;;1.88;;
10450;SDS011;5273;51.290;6.918;2023-07-30T10:34:10;4.43;;;1.75;;
10450;SDS011;5273;51.290;6.918;2023-07-30T10:36:40;3.97;;;1.80;;
10450;SDS011;5273;51.290;6.918;2023-07-30T10:39:13;9.35;;;2.10;;
10450;SDS011;5273;51.290;6.918;2023-07-30T10:41:42;5.65;;;1.70;;
10450;SDS011;5273;51.290;6.918;2023-07-30T10:44:17;5.35;;;2.08;;
10450;SDS011;5273;51.290;6.918;2023-07-30T10:46:46;4.93;;;1.98;;
10450;SDS011;5273;51.290;6.918;2023-07-30T10:49:13;5.57;;;1.90;;
10450;SDS011;5273;51.290;6.918;2023-07-30T10:51:40;6.45;;;2.10;;
10450;SDS011;5273;51.290;6.918;2023-07-30T10:54:07;4.07;;;1.88;;
10450;SDS011;5273;51.290;6.918;2023-07-30T10:56:34;5.65;;;2.30;;
10450;SDS011;5273;51.290;6.918;2023-07-30T10:59:03;6.60;;;2.38;;
10450;SDS011;5273;51.290;6.918;2023-07-30T11:01:30;5.22;;;2.05;;
10450;SDS011;5273;51.290;6.918;2023-07-30T11:03:59;5.60;;;1.80;;
10450;SDS011;5273;51.290;6.918;2023-07-30T11:06:26;7.55;;;2.10;;
10450;SDS011;5273;51.290;6.918;2023-07-30T11:08:53;3.78;;;2.10;;
10450;SDS011;5273;51.290;6.918;2023-07-30T11:11:20;5.47;;;2.17;;
10450;SDS011;5273;51.290;6.918;2023-07-30T11:13:49;3.55;;;1.67;;
10450;SDS011;5273;51.290;6.918;2023-07-30T11:16:16;4.90;;;1.65;;
10450;SDS011;5273;51.290;6.918;2023-07-30T11:18:44;4.57;;;1.63;;
10450;SDS011;5273;51.290;6.918;2023-07-30T11:21:13;10.23;;;2.10;;
10450;SDS011;5273;51.290;6.918;2023-07-30T11:23:42;8.18;;;1.85;;
10450;SDS011;5273;51.290;6.918;2023-07-30T11:26:13;4.65;;;2.08;;
10450;SDS011;5273;51.290;6.918;2023-07-30T11:28:40;3.80;;;1.95;;
10450;SDS011;5273;51.290;6.918;2023-07-30T11:31:08;4.82;;;1.58;;
10450;SDS011;5273;51.290;6.918;2023-07-30T11:33:36;4.40;;;1.48;;
10450;SDS011;5273;51.290;6.918;2023-07-30T11:36:05;7.55;;;1.85;;
10450;SDS011;5273;51.290;6.918;2023-07-30T11:38:35;5.85;;;1.95;;
10450;SDS011;5273;51.290;6.918;2023-07-30T12:01:15;4.68;;;1.92;;
10450;SDS011;5273;51.290;6.918;2023-07-30T12:03:42;4.50;;;1.70;;
10450;SDS011;5273;51.290;6.918;2023-07-30T12:06:10;4.53;;;1.70;;
10450;SDS011;5273;51.290;6.918;2023-07-30T12:08:37;3.60;;;1.23;;
10450;SDS011;5273;51.290;6.918;2023-07-30T12:11:04;3.72;;;1.75;;
10450;SDS011;5273;51.290;6.918;2023-07-30T12:13:32;4.85;;;1.55;;
10450;SDS011;5273;51.290;6.918;2023-07-30T12:16:00;3.60;;;1.80;;
10450;SDS011;5273;51.290;6.918;2023-07-30T12:18:28;4.90;;;1.95;;
10450;SDS011;5273;51.290;6.918;2023-07-30T12:20:55;4.00;;;1.55;;
10450;SDS011;5273;51.290;6.918;2023-07-30T12:23:23;3.42;;;1.30;;
10450;SDS011;5273;51.290;6.918;2023-07-30T12:25:50;3.53;;;1.70;;
10450;SDS011;5273;51.290;6.918;2023-07-30T12:28:17;2.03;;;1.20;;
10450;SDS011;5273;51.290;6.918;2023-07-30T12:30:43;3.13;;;1.40;;
10450;SDS011;5273;51.290;6.918;2023-07-30T12:33:10;2.58;;;1.13;;
10450;SDS011;5273;51.290;6.918;2023-07-30T12:35:38;4.57;;;1.10;;
10450;SDS011;5273;51.290;6.918;2023-07-30T12:38:05;2.58;;;1.15;;
10450;SDS011;5273;51.290;6.918;2023-07-30T12:40:32;2.65;;;1.05;;
10450;SDS011;5273;51.290;6.918;2023-07-30T12:43:00;2.90;;;1.40;;
10450;SDS011;5273;51.290;6.918;2023-07-30T12:45:28;2.47;;;1.10;;
10450;SDS011;5273;51.290;6.918;2023-07-30T12:47:54;4.35;;;1.38;;
10450;SDS011;5273;51.290;6.918;2023-07-30T12:50:21;4.10;;;1.27;;
10450;SDS011;5273;51.290;6.918;2023-07-30T12:52:49;3.20;;;1.35;;
10450;SDS011;5273;51.290;6.918;2023-07-30T12:55:16;2.80;;;0.95;;
10450;SDS011;5273;51.290;6.918;2023-07-30T12:57:43;10.98;;;2.03;;
10450;SDS011;5273;51.290;6.918;2023-07-30T13:00:10;3.83;;;1.38;;
10450;SDS011;5273;51.290;6.918;2023-07-30T13:02:38;4.20;;;1.48;;
10450;SDS011;5273;51.290;6.918;2023-07-30T13:05:05;3.55;;;1.48;;
10450;SDS011;5273;51.290;6.918;2023-07-30T13:07:32;2.75;;;1.52;;
10450;SDS011;5273;51.290;6.918;2023-07-30T13:10:04;4.25;;;1.45;;
10450;SDS011;5273;51.290;6.918;2023-07-30T13:12:31;4.35;;;1.35;;
10450;SDS011;5273;51.290;6.918;2023-07-30T13:14:58;3.90;;;1.30;;
10450;SDS011;5273;51.290;6.918;2023-07-30T13:17:25;3.20;;;1.35;;
10450;SDS011;5273;51.290;6.918;2023-07-30T13:19:52;2.75;;;1.27;;
10450;SDS011;5273;51.290;6.918;2023-07-30T13:22:19;1.85;;;1.40;;
10450;SDS011;5273;51.290;6.918;2023-07-30T13:24:46;3.25;;;1.42;;
10450;SDS011;5273;51.290;6.918;2023-07-30T13:27:14;4.15;;;1.50;;
10450;SDS011;5273;51.290;6.918;2023-07-30T13:29:41;3.75;;;1.77;;
10450;SDS011;5273;51.290;6.918;2023-07-30T13:32:08;4.28;;;1.48;;
10450;SDS011;5273;51.290;6.918;2023-07-30T13:34:35;5.18;;;1.60;;
10450;SDS011;5273;51.290;6.918;2023-07-30T13:37:02;4.70;;;1.60;;
10450;SDS011;5273;51.290;6.918;2023-07-30T13:39:29;3.72;;;1.48;;
10450;SDS011;5273;51.290;6.918;2023-07-30T13:41:55;2.67;;;1.27;;
10450;SDS011;5273;51.290;6.918;2023-07-30T13:44:23;5.43;;;1.50;;
10450;SDS011;5273;51.290;6.918;2023-07-30T13:46:50;3.17;;;1.70;;
10450;SDS011;5273;51.290;6.918;2023-07-30T13:49:18;5.47;;;1.58;;
10450;SDS011;5273;51.290;6.918;2023-07-30T13:51:45;2.53;;;1.60;;
10450;SDS011;5273;51.290;6.918;2023-07-30T13:54:12;3.97;;;1.38;;
10450;SDS011;5273;51.290;6.918;2023-07-30T13:56:39;2.67;;;1.50;;
10450;SDS011;5273;51.290;6.918;2023-07-30T13:59:05;5.35;;;1.50;;
10450;SDS011;5273;51.290;6.918;2023-07-30T14:01:34;4.45;;;1.60;;
10450;SDS011;5273;51.290;6.918;2023-07-30T14:04:00;4.45;;;1.45;;
10450;SDS011;5273;51.290;6.918;2023-07-30T14:06:27;5.70;;;1.48;;
10450;SDS011;5273;51.290;6.918;2023-07-30T14:08:55;3.28;;;1.60;;
10450;SDS011;5273;51.290;6.918;2023-07-30T14:11:24;4.18;;;1.73;;
10450;SDS011;5273;51.290;6.918;2023-07-30T14:13:51;5.43;;;1.80;;
10450;SDS011;5273;51.290;6.918;2023-07-30T14:16:18;3.53;;;1.67;;
10450;SDS011;5273;51.290;6.918;2023-07-30T14:18:46;4.47;;;1.70;;
10450;SDS011;5273;51.290;6.918;2023-07-30T14:21:13;4.47;;;1.60;;
10450;SDS011;5273;51.290;6.918;2023-07-30T14:23:39;4.75;;;1.80;;
10450;SDS011;5273;51.290;6.918;2023-07-30T14:26:06;3.30;;;1.52;;
10450;SDS011;5273;51.290;6.918;2023-07-30T14:28:33;3.72;;;1.70;;
10450;SDS011;5273;51.290;6.918;2023-07-30T14:31:00;3.22;;;1.42;;
10450;SDS011;5273;51.290;6.918;2023-07-30T14:33:27;3.47;;;1.35;;
10450;SDS011;5273;51.290;6.918;2023-07-30T14:35:55;6.72;;;1.88;;
10450;SDS011;5273;51.290;6.918;2023-07-30T14:38:22;5.38;;;1.77;;
10450;SDS011;5273;51.290;6.918;2023-07-30T14:40:48;5.78;;;1.77;;
10450;SDS011;5273;51.290;6.918;2023-07-30T14:43:15;2.08;;;1.63;;
10450;SDS011;5273;51.290;6.918;2023-07-30T14:45:42;4.35;;;1.67;;
10450;SDS011;5273;51.290;6.918;2023-07-30T14:48:09;2.58;;;1.55;;
10450;SDS011;5273;51.290;6.918;2023-07-30T14:50:36;3.70;;;1.52;;
10450;SDS011;5273;51.290;6.918;2023-07-30T14:53:04;5.43;;;2.08;;
10450;SDS011;5273;51.290;6.918;2023-07-30T14:55:30;3.70;;;1.70;;
10450;SDS011;5273;51.290;6.918;2023-07-30T14:57:58;5.18;;;2.05;;
10450;SDS011;5273;51.290;6.918;2023-07-30T15:00:25;3.83;;;1.67;;
10450;SDS011;5273;51.290;6.918;2023-07-30T15:02:52;2.67;;;1.40;;
10450;SDS011;5273;51.290;6.918;2023-07-30T15:05:19;5.85;;;1.98;;
10450;SDS011;5273;51.290;6.918;2023-07-30T15:07:46;4.93;;;1.50;;
10450;SDS011;5273;51.290;6.918;2023-07-30T15:10:14;4.38;;;1.77;;
10450;SDS011;5273;51.290;6.918;2023-07-30T15:12:42;3.03;;;1.13;;
10450;SDS011;5273;51.290;6.918;2023-07-30T15:15:09;4.65;;;1.67;;
10450;SDS011;5273;51.290;6.918;2023-07-30T15:17:36;4.47;;;1.73;;
10450;SDS011;5273;51.290;6.918;2023-07-30T15:20:03;3.78;;;1.48;;
10450;SDS011;5273;51.290;6.918;2023-07-30T15:22:31;3.90;;;1.52;;